createdAt,value
2018-06-10T00:01:32.419Z,28.33
2018-06-10T00:04:10.458Z,28.31
2018-06-10T00:06:48.265Z,28.28
2018-06-10T00:09:26.274Z,28.27
2018-06-10T00:12:04.292Z,28.24
2018-06-10T00:14:42.308Z,28.25
2018-06-10T00:17:20.966Z,28.13
2018-06-10T00:19:58.106Z,28.13
2018-06-10T00:22:36.415Z,28.08
2018-06-10T00:25:18.731Z,28.04
2018-06-10T00:27:57.313Z,28.06
2018-06-10T00:30:34.499Z,28.02
2018-06-10T00:33:12.846Z,27.94
2018-06-10T00:35:50.545Z,27.91
2018-06-10T00:38:28.558Z,27.84
2018-06-10T00:41:06.660Z,27.90
2018-06-10T00:43:43.874Z,27.88
2018-06-10T00:46:21.208Z,27.80
2018-06-10T00:48:58.090Z,27.76
2018-06-10T00:51:36.276Z,27.74
2018-06-10T00:54:13.539Z,27.73
2018-06-10T00:56:57.231Z,27.66
2018-06-10T00:59:35.315Z,27.64
2018-06-10T01:02:12.705Z,27.67
2018-06-10T01:04:51.056Z,27.63
2018-06-10T01:07:28.506Z,27.62
2018-06-10T01:10:06.679Z,27.64
2018-06-10T01:12:44.485Z,27.59
2018-06-10T01:15:20.061Z,27.54
2018-06-10T01:17:57.927Z,27.54
2018-06-10T01:20:35.815Z,27.48
2018-06-10T01:23:13.275Z,27.49
2018-06-10T01:25:51.316Z,27.36
2018-06-10T01:28:31.499Z,27.26
2018-06-10T01:31:09.891Z,27.19
2018-06-10T01:33:48.114Z,27.16
2018-06-10T01:36:25.852Z,27.22
2018-06-10T01:39:04.077Z,27.16
2018-06-10T01:41:41.513Z,27.09
2018-06-10T01:44:19.406Z,27.09
2018-06-10T01:46:57.756Z,27.09
2018-06-10T01:49:35.467Z,27.04
2018-06-10T01:52:13.281Z,26.94
2018-06-10T01:54:50.516Z,26.86
2018-06-10T01:57:27.291Z,26.80
2018-06-10T02:00:05.578Z,26.82
2018-06-10T02:02:43.301Z,26.81
2018-06-10T02:05:23.300Z,26.76
2018-06-10T02:08:00.714Z,26.69
2018-06-10T02:10:38.679Z,26.53
2018-06-10T02:13:16.720Z,26.54
2018-06-10T02:15:54.923Z,26.48
2018-06-10T02:18:34.339Z,26.45
2018-06-10T02:21:13.476Z,26.30
2018-06-10T02:23:56.754Z,26.19
2018-06-10T02:29:25.270Z,26.08
2018-06-10T02:32:02.751Z,25.95
2018-06-10T02:34:41.343Z,25.91
2018-06-10T02:37:19.415Z,25.83
2018-06-10T02:39:57.938Z,25.75
2018-06-10T02:42:36.884Z,25.62
2018-06-10T02:45:16.270Z,25.52
2018-06-10T02:47:53.761Z,25.60
2018-06-10T02:50:31.087Z,25.62
2018-06-10T02:53:08.856Z,25.54
2018-06-10T02:55:47.086Z,25.58
2018-06-10T02:58:24.546Z,25.56
2018-06-10T03:01:03.261Z,25.48
2018-06-10T03:03:40.853Z,25.44
2018-06-10T03:06:18.827Z,25.39
2018-06-10T03:08:56.083Z,25.27
2018-06-10T03:11:33.201Z,25.13
2018-06-10T03:14:11.210Z,25.01
2018-06-10T03:16:48.674Z,24.96
2018-06-10T03:19:26.838Z,24.88
2018-06-10T03:22:04.286Z,24.78
2018-06-10T03:24:42.280Z,24.85
2018-06-10T03:27:19.323Z,24.84
2018-06-10T03:29:57.876Z,24.69
2018-06-10T03:32:35.461Z,24.83
2018-06-10T03:35:13.422Z,24.81
2018-06-10T03:37:52.280Z,24.72
2018-06-10T03:40:28.010Z,24.62
2018-06-10T03:43:06.682Z,24.45
2018-06-10T03:45:45.341Z,24.51
2018-06-10T03:48:23.087Z,24.57
2018-06-10T03:51:00.730Z,24.58
2018-06-10T03:53:38.590Z,24.57
2018-06-10T03:56:16.443Z,24.53
2018-06-10T03:58:53.956Z,24.46
2018-06-10T04:01:31.473Z,24.46
2018-06-10T04:04:08.922Z,24.53
2018-06-10T04:06:46.842Z,24.49
2018-06-10T04:09:25.427Z,24.42
2018-06-10T04:12:03.490Z,24.50
2018-06-10T04:14:40.771Z,24.36
2018-06-10T04:17:17.863Z,24.20
2018-06-10T04:19:55.566Z,24.11
2018-06-10T04:22:33.875Z,24.17
2018-06-10T04:25:10.808Z,24.17
2018-06-10T04:27:48.664Z,24.06
2018-06-10T04:30:26.668Z,24.08
2018-06-10T04:33:04.273Z,23.93
2018-06-10T04:35:41.970Z,24.03
2018-06-10T04:38:19.124Z,24.00
2018-06-10T04:40:57.488Z,24.04
2018-06-10T04:43:34.216Z,24.01
2018-06-10T04:46:12.268Z,23.95
2018-06-10T04:48:50.310Z,23.94
2018-06-10T04:51:27.884Z,23.88
2018-06-10T04:54:05.945Z,23.87
2018-06-10T04:56:44.410Z,23.80
2018-06-10T04:59:22.878Z,23.81
2018-06-10T05:02:00.849Z,23.78
2018-06-10T05:04:39.310Z,23.61
2018-06-10T05:07:18.847Z,23.53
2018-06-10T05:09:56.206Z,23.45
2018-06-10T05:12:36.470Z,23.48
2018-06-10T05:15:13.689Z,23.42
2018-06-10T05:17:51.305Z,23.34
2018-06-10T05:20:28.857Z,23.30
2018-06-10T05:23:07.303Z,23.30
2018-06-10T05:25:44.863Z,23.33
2018-06-10T05:30:49.809Z,23.15
2018-06-10T05:33:28.180Z,23.28
2018-06-10T05:36:04.960Z,23.22
2018-06-10T05:38:42.308Z,23.02
2018-06-10T05:41:19.687Z,23.01
2018-06-10T05:43:57.093Z,23.10
2018-06-10T05:46:34.472Z,23.20
2018-06-10T05:49:12.451Z,23.24
2018-06-10T05:51:51.076Z,23.28
2018-06-10T05:54:28.684Z,23.22
2018-06-10T05:57:06.431Z,23.15
2018-06-10T05:59:43.834Z,23.14
2018-06-10T06:02:21.791Z,23.08
2018-06-10T06:05:00.117Z,23.03
2018-06-10T06:07:40.478Z,23.10
2018-06-10T06:10:18.563Z,23.10
2018-06-10T06:12:57.299Z,23.05
2018-06-10T06:15:35.440Z,22.99
2018-06-10T06:18:14.426Z,23.00
2018-06-10T06:20:52.862Z,22.91
2018-06-10T06:23:31.410Z,23.04
2018-06-10T06:26:09.463Z,23.12
2018-06-10T06:28:46.449Z,23.13
2018-06-10T06:31:25.131Z,23.11
2018-06-10T06:34:03.550Z,23.12
2018-06-10T06:36:39.287Z,23.14
2018-06-10T06:39:17.274Z,23.03
2018-06-10T06:41:54.841Z,22.96
2018-06-10T06:44:32.845Z,22.99
2018-06-10T06:47:10.253Z,22.97
2018-06-10T06:49:48.327Z,23.01
2018-06-10T06:52:26.777Z,22.95
2018-06-10T06:55:04.687Z,22.92
2018-06-10T06:57:43.316Z,22.92
2018-06-10T07:00:20.912Z,22.90
2018-06-10T07:02:59.449Z,22.80
2018-06-10T07:05:36.857Z,22.82
2018-06-10T07:08:14.852Z,22.52
2018-06-10T07:10:53.091Z,22.06
2018-06-10T07:13:31.455Z,21.94
2018-06-10T07:16:09.499Z,22.15
2018-06-10T07:18:47.936Z,22.27
2018-06-10T07:21:25.451Z,22.01
2018-06-10T07:24:04.941Z,21.87
2018-06-10T07:26:42.702Z,22.00
2018-06-10T07:29:21.755Z,22.10
2018-06-10T07:31:59.857Z,22.11
2018-06-10T07:34:38.585Z,22.04
2018-06-10T07:37:16.505Z,22.08
2018-06-10T07:39:54.742Z,22.08
2018-06-10T07:42:33.428Z,22.10
2018-06-10T07:45:11.935Z,22.22
2018-06-10T07:47:49.784Z,22.25
2018-06-10T07:50:27.434Z,22.25
2018-06-10T07:53:05.397Z,22.26
2018-06-10T07:55:44.071Z,22.27
2018-06-10T07:58:21.848Z,22.20
2018-06-10T08:01:00.427Z,22.22
2018-06-10T08:03:36.766Z,22.19
2018-06-10T08:06:14.329Z,22.21
2018-06-10T08:08:51.274Z,22.21
2018-06-10T08:11:29.540Z,22.19
2018-06-10T08:14:06.870Z,22.21
2018-06-10T08:16:44.319Z,22.17
2018-06-10T08:19:21.839Z,22.24
2018-06-10T08:21:58.854Z,22.21
2018-06-10T08:24:36.510Z,22.17
2018-06-10T08:27:13.876Z,22.13
2018-06-10T08:29:50.859Z,22.20
2018-06-10T08:32:28.412Z,22.22
2018-06-10T08:35:05.250Z,22.26
2018-06-10T08:37:42.314Z,22.08
2018-06-10T08:40:17.771Z,21.86
2018-06-10T08:42:55.671Z,21.89
2018-06-10T08:45:33.279Z,21.76
2018-06-10T08:48:11.437Z,21.88
2018-06-10T08:50:48.753Z,22.03
2018-06-10T08:53:26.882Z,22.02
2018-06-10T08:56:04.890Z,21.86
2018-06-10T08:58:42.313Z,21.75
2018-06-10T09:01:19.675Z,21.82
2018-06-10T09:03:57.455Z,21.82
2018-06-10T09:06:35.214Z,21.88
2018-06-10T09:09:14.850Z,21.93
2018-06-10T09:11:53.681Z,22.01
2018-06-10T09:14:31.613Z,21.93
2018-06-10T09:17:09.423Z,21.72
2018-06-10T09:19:46.943Z,21.74
2018-06-10T09:22:24.747Z,21.62
2018-06-10T09:25:03.366Z,21.71
2018-06-10T09:27:41.297Z,21.54
2018-06-10T09:30:18.845Z,21.52
2018-06-10T09:32:56.486Z,21.60
2018-06-10T09:35:31.778Z,21.68
2018-06-10T09:38:09.404Z,21.76
2018-06-10T09:40:47.577Z,21.83
2018-06-10T09:43:26.087Z,21.87
2018-06-10T09:46:03.875Z,21.86
2018-06-10T09:48:41.847Z,21.84
2018-06-10T09:51:20.471Z,21.83
2018-06-10T09:53:58.863Z,21.85
2018-06-10T09:56:36.842Z,21.91
2018-06-10T09:59:14.853Z,21.94
2018-06-10T10:01:52.424Z,21.89
2018-06-10T10:04:29.865Z,21.91
2018-06-10T10:07:08.910Z,21.85
2018-06-10T10:09:44.293Z,21.76
2018-06-10T10:12:22.508Z,21.37
2018-06-10T10:15:00.451Z,21.35
2018-06-10T10:17:39.927Z,21.49
2018-06-10T10:20:18.277Z,21.51
2018-06-10T10:22:56.576Z,21.54
2018-06-10T10:25:34.334Z,21.54
2018-06-10T10:28:09.265Z,21.60
2018-06-10T10:30:46.519Z,21.57
2018-06-10T10:33:23.826Z,21.53
2018-06-10T10:36:01.586Z,21.46
2018-06-10T10:38:38.925Z,21.41
2018-06-10T10:41:16.120Z,21.37
2018-06-10T10:43:52.987Z,21.40
2018-06-10T10:46:30.309Z,21.43
2018-06-10T10:49:08.319Z,21.43
2018-06-10T10:51:43.414Z,21.36
2018-06-10T10:54:20.264Z,21.37
2018-06-10T10:56:58.117Z,21.38
2018-06-10T10:59:36.450Z,21.41
2018-06-10T11:02:12.447Z,21.32
2018-06-10T11:04:49.269Z,21.40
2018-06-10T11:07:24.517Z,21.35
2018-06-10T11:10:01.882Z,21.36
2018-06-10T11:12:39.757Z,21.38
2018-06-10T11:15:17.795Z,21.37
2018-06-10T11:17:53.082Z,21.35
2018-06-10T11:20:30.347Z,21.31
2018-06-10T11:23:08.551Z,21.33
2018-06-10T11:25:46.425Z,21.28
2018-06-10T11:28:23.701Z,21.31
2018-06-10T11:31:01.503Z,21.28
2018-06-10T11:33:36.038Z,21.24
2018-06-10T11:36:14.880Z,21.26
2018-06-10T11:38:52.081Z,21.26
2018-06-10T11:41:29.848Z,21.29
2018-06-10T11:44:07.856Z,21.32
2018-06-10T11:46:44.660Z,21.35
2018-06-10T11:49:21.762Z,21.35
2018-06-10T11:51:59.909Z,21.36
2018-06-10T11:54:38.432Z,21.29
2018-06-10T11:57:15.746Z,21.22
2018-06-10T11:59:53.256Z,21.23
2018-06-10T12:02:30.458Z,21.17
2018-06-10T12:05:07.839Z,21.13
2018-06-10T12:07:46.264Z,21.18
2018-06-10T12:10:23.448Z,21.17
2018-06-10T12:12:59.283Z,21.14
2018-06-10T12:15:38.060Z,21.16
2018-06-10T12:18:15.839Z,21.07
2018-06-10T12:20:53.466Z,21.09
2018-06-10T12:23:30.541Z,21.05
2018-06-10T12:26:07.921Z,21.03
2018-06-10T12:28:45.543Z,21.02
2018-06-10T12:31:23.676Z,20.98
2018-06-10T12:34:00.858Z,20.90
2018-06-10T12:36:40.222Z,20.90
2018-06-10T12:39:18.076Z,21.01
2018-06-10T12:41:55.505Z,21.05
2018-06-10T12:44:33.639Z,21.05
2018-06-10T12:50:08.273Z,20.91
2018-06-10T12:52:45.753Z,20.96
2018-06-10T12:55:23.102Z,20.97
2018-06-10T12:58:01.103Z,21.02
2018-06-10T13:00:39.794Z,20.98
2018-06-10T13:03:17.798Z,20.96
2018-06-10T13:05:56.269Z,20.99
2018-06-10T13:08:34.478Z,21.02
2018-06-10T13:11:11.760Z,21.03
2018-06-10T13:13:50.428Z,20.96
2018-06-10T13:16:27.966Z,20.88
2018-06-10T13:19:05.091Z,20.81
2018-06-10T13:21:42.496Z,20.89
2018-06-10T13:24:20.461Z,20.90
2018-06-10T13:26:57.515Z,20.93
2018-06-10T13:29:34.856Z,20.94
2018-06-10T13:32:12.577Z,20.96
2018-06-10T13:34:49.453Z,20.93
2018-06-10T13:37:27.779Z,20.97
2018-06-10T13:40:04.262Z,20.95
2018-06-10T13:42:42.652Z,20.97
2018-06-10T13:45:19.512Z,20.92
2018-06-10T13:47:56.650Z,20.97
2018-06-10T13:50:34.952Z,20.99
2018-06-10T13:53:13.437Z,20.96
2018-06-10T13:55:52.145Z,21.01
2018-06-10T13:58:29.761Z,21.04
2018-06-10T14:01:08.265Z,21.05
2018-06-10T14:03:45.858Z,21.02
2018-06-10T14:06:24.549Z,20.98
2018-06-10T14:09:02.271Z,21.00
2018-06-10T14:11:40.090Z,21.00
2018-06-10T14:14:17.275Z,21.08
2018-06-10T14:16:55.813Z,21.02
2018-06-10T14:19:33.349Z,21.07
2018-06-10T14:22:11.265Z,21.10
2018-06-10T14:24:48.330Z,21.11
2018-06-10T14:27:25.857Z,21.12
2018-06-10T14:30:03.854Z,21.14
2018-06-10T14:32:41.749Z,21.10
2018-06-10T14:36:20.284Z,21.04
2018-06-10T14:38:57.837Z,20.92
2018-06-10T14:41:35.758Z,21.01
2018-06-10T14:44:13.424Z,21.13
2018-06-10T14:46:51.316Z,21.21
2018-06-10T14:49:29.356Z,21.20
2018-06-10T14:52:07.852Z,21.26
2018-06-10T14:54:44.766Z,21.20
2018-06-10T14:57:22.261Z,21.18
2018-06-10T15:00:00.494Z,21.17
2018-06-10T15:02:38.544Z,21.24
2018-06-10T15:05:16.277Z,21.15
2018-06-10T15:07:51.980Z,21.17
2018-06-10T15:10:29.274Z,21.25
2018-06-10T15:13:07.102Z,21.31
2018-06-10T15:15:45.526Z,21.37
2018-06-10T15:18:24.249Z,21.43
2018-06-10T15:21:02.267Z,21.39
2018-06-10T15:23:40.267Z,21.25
2018-06-10T15:26:18.109Z,21.28
2018-06-10T15:28:55.538Z,21.25
2018-06-10T15:31:32.862Z,21.26
2018-06-10T15:34:10.592Z,21.28
2018-06-10T15:36:47.524Z,21.26
2018-06-10T15:39:25.002Z,21.17
2018-06-10T15:42:03.597Z,21.21
2018-06-10T15:44:41.271Z,21.28
2018-06-10T15:47:19.943Z,21.35
2018-06-10T15:49:57.526Z,21.39
2018-06-10T15:52:35.094Z,21.29
2018-06-10T15:55:12.820Z,21.26
2018-06-10T15:57:50.323Z,21.40
2018-06-10T16:00:28.805Z,21.44
2018-06-10T16:03:06.818Z,21.53
2018-06-10T16:05:44.493Z,21.55
2018-06-10T16:08:21.488Z,21.52
2018-06-10T16:10:56.771Z,21.57
2018-06-10T16:13:33.887Z,21.62
2018-06-10T16:16:11.214Z,21.61
2018-06-10T16:18:49.312Z,21.68
2018-06-10T16:21:26.872Z,21.72
2018-06-10T16:24:05.437Z,21.73
2018-06-10T16:26:41.656Z,21.63
2018-06-10T16:29:19.673Z,21.64
2018-06-10T16:31:57.098Z,21.74
2018-06-10T16:34:35.214Z,21.76
2018-06-10T16:37:12.802Z,21.84
2018-06-10T16:39:50.806Z,21.92
2018-06-10T16:42:27.852Z,22.00
2018-06-10T16:45:04.757Z,22.04
2018-06-10T16:47:42.427Z,22.03
2018-06-10T16:50:19.269Z,22.12
2018-06-10T16:52:56.333Z,22.09
2018-06-10T16:55:31.692Z,22.09
2018-06-10T16:58:09.466Z,22.17
2018-06-10T17:00:44.266Z,22.25
2018-06-10T17:03:21.460Z,22.22
2018-06-10T17:05:58.271Z,22.30
2018-06-10T17:08:35.583Z,22.43
2018-06-10T17:11:12.896Z,22.46
2018-06-10T17:13:50.828Z,22.47
2018-06-10T17:16:29.535Z,22.54
2018-06-10T17:19:05.425Z,22.59
2018-06-10T17:21:43.463Z,22.62
2018-06-10T17:24:21.213Z,22.65
2018-06-10T17:26:59.260Z,22.72
2018-06-10T17:29:37.848Z,22.78
2018-06-10T17:32:15.287Z,22.84
2018-06-10T17:34:52.842Z,22.87
2018-06-10T17:37:30.257Z,22.83
2018-06-10T17:40:08.136Z,22.82
2018-06-10T17:42:46.878Z,22.80
2018-06-10T17:45:23.010Z,22.80
2018-06-10T17:47:59.441Z,22.89
2018-06-10T17:50:37.071Z,22.96
2018-06-10T17:53:14.433Z,22.97
2018-06-10T17:55:53.088Z,23.01
2018-06-10T17:58:30.262Z,23.18
2018-06-10T18:01:08.089Z,23.30
2018-06-10T18:03:45.754Z,23.34
2018-06-10T18:06:23.232Z,23.34
2018-06-10T18:09:00.266Z,23.36
2018-06-10T18:11:38.259Z,23.38
2018-06-10T18:14:15.492Z,23.39
2018-06-10T18:16:52.760Z,23.42
2018-06-10T18:19:28.273Z,23.43
2018-06-10T18:22:04.106Z,23.42
2018-06-10T18:24:40.129Z,23.46
2018-06-10T18:27:17.090Z,23.50
2018-06-10T18:29:53.270Z,23.52
2018-06-10T18:32:29.217Z,23.61
2018-06-10T18:35:05.087Z,23.64
2018-06-10T18:37:40.856Z,23.67
2018-06-10T18:40:16.848Z,23.71
2018-06-10T18:42:52.523Z,23.80
2018-06-10T18:45:28.109Z,23.82
2018-06-10T18:48:04.067Z,23.86
2018-06-10T18:50:39.910Z,23.88
2018-06-10T18:53:16.168Z,23.98
2018-06-10T18:55:53.278Z,24.02
2018-06-10T18:58:29.087Z,24.06
2018-06-10T19:01:05.258Z,24.10
2018-06-10T19:03:40.925Z,24.15
2018-06-10T19:06:16.840Z,24.21
2018-06-10T19:08:52.814Z,24.26
2018-06-10T19:11:28.520Z,24.38
2018-06-10T19:14:02.236Z,24.52
2018-06-10T19:16:38.088Z,24.52
2018-06-10T19:19:14.812Z,24.58
2018-06-10T19:21:50.779Z,24.60
2018-06-10T19:24:26.881Z,24.66
2018-06-10T19:27:03.272Z,24.72
2018-06-10T19:29:37.266Z,24.82
2018-06-10T19:32:13.543Z,24.92
2018-06-10T19:34:51.099Z,25.02
2018-06-10T19:37:27.271Z,25.05
2018-06-10T19:40:01.318Z,25.06
2018-06-10T19:42:37.557Z,25.08
2018-06-10T19:45:13.966Z,25.12
2018-06-10T19:47:50.485Z,25.17
2018-06-10T19:50:26.912Z,25.19
2018-06-10T19:53:03.347Z,25.32
2018-06-10T19:55:39.755Z,25.42
2018-06-10T19:58:16.339Z,25.48
2018-06-10T20:00:52.934Z,25.56
2018-06-10T20:03:29.693Z,25.60
2018-06-10T20:06:06.323Z,25.63
2018-06-10T20:08:42.702Z,25.65
2018-06-10T20:11:19.210Z,25.74
2018-06-10T20:13:55.522Z,25.85
2018-06-10T20:16:31.953Z,25.95
2018-06-10T20:19:08.275Z,26.05
2018-06-10T20:21:44.417Z,26.08
2018-06-10T20:24:20.847Z,26.14
2018-06-10T20:26:57.110Z,26.20
2018-06-10T20:29:33.504Z,26.30
2018-06-10T20:32:11.093Z,26.36
2018-06-10T20:34:47.271Z,26.48
2018-06-10T20:37:23.661Z,26.66
2018-06-10T20:40:00.209Z,26.78
2018-06-10T20:42:36.429Z,26.91
2018-06-10T20:45:13.539Z,27.03
2018-06-10T20:47:49.432Z,27.15
2018-06-10T20:50:26.721Z,27.17
2018-06-10T20:53:04.209Z,27.26
2018-06-10T20:55:41.257Z,27.31
2018-06-10T20:58:17.423Z,27.37
2018-06-10T21:00:54.731Z,27.45
2018-06-10T21:03:31.276Z,27.56
2018-06-10T21:06:07.843Z,27.58
2018-06-10T21:08:44.306Z,27.56
2018-06-10T21:11:20.519Z,27.61
2018-06-10T21:13:58.410Z,27.63
2018-06-10T21:16:34.835Z,27.63
2018-06-10T21:19:11.204Z,27.69
2018-06-10T21:21:47.329Z,27.73
2018-06-10T21:24:24.315Z,27.76
2018-06-10T21:26:58.686Z,27.84
2018-06-10T21:29:34.443Z,27.88
2018-06-10T21:32:10.812Z,27.98
2018-06-10T21:34:48.366Z,28.03
2018-06-10T21:37:25.746Z,28.10
2018-06-10T21:40:01.878Z,28.17
2018-06-10T21:42:38.431Z,28.23
2018-06-10T21:45:14.763Z,28.30
2018-06-10T21:47:51.279Z,28.38
2018-06-10T21:50:27.216Z,28.39
2018-06-10T21:53:05.299Z,28.36
2018-06-10T21:55:42.863Z,28.35
2018-06-10T21:58:19.479Z,28.33
2018-06-10T22:00:55.759Z,28.40
2018-06-10T22:03:33.073Z,28.51
2018-06-10T22:06:10.327Z,28.51
2018-06-10T22:08:46.308Z,28.49
2018-06-10T22:11:20.258Z,28.46
2018-06-10T22:13:56.425Z,28.51
2018-06-10T22:16:32.855Z,28.58
2018-06-10T22:19:09.745Z,28.68
2018-06-10T22:21:45.748Z,28.81
2018-06-10T22:24:22.431Z,28.89
2018-06-10T22:26:59.662Z,28.96
2018-06-10T22:29:37.268Z,28.99
2018-06-10T22:32:11.226Z,29.03
2018-06-10T22:34:47.433Z,28.99
2018-06-10T22:37:23.792Z,29.00
2018-06-10T22:40:01.162Z,28.97
2018-06-10T22:42:37.270Z,28.99
2018-06-10T22:45:13.833Z,28.97
2018-06-10T22:47:50.296Z,28.92
2018-06-10T22:50:26.265Z,28.93
2018-06-10T22:53:17.422Z,28.85
2018-06-10T22:55:54.263Z,28.84
2018-06-10T22:58:30.531Z,28.83
2018-06-10T23:01:06.894Z,28.81
2018-06-10T23:03:43.338Z,28.81
2018-06-10T23:06:20.210Z,28.86
2018-06-10T23:08:56.674Z,28.83
2018-06-10T23:11:33.094Z,28.75
2018-06-10T23:14:09.320Z,28.72
2018-06-10T23:16:45.580Z,28.70
2018-06-10T23:19:21.488Z,28.80
2018-06-10T23:21:57.531Z,28.70
2018-06-10T23:24:33.701Z,28.70
2018-06-10T23:27:09.830Z,28.68
2018-06-10T23:29:46.212Z,28.66
2018-06-10T23:32:24.303Z,28.65
2018-06-10T23:35:00.955Z,28.57
2018-06-10T23:37:37.323Z,28.61
2018-06-10T23:40:11.434Z,28.69
2018-06-10T23:42:48.551Z,28.72
2018-06-10T23:45:24.774Z,28.72
2018-06-10T23:48:00.934Z,28.67
2018-06-10T23:50:37.092Z,28.63
2018-06-10T23:53:12.842Z,28.71
2018-06-10T23:55:49.205Z,28.66
2018-06-10T23:58:25.556Z,28.63
